createdAt,value
2018-01-20T00:02:11.313Z,58.52
2018-01-20T00:04:37.745Z,58.72
2018-01-20T00:07:04.160Z,59.79
2018-01-20T00:09:42.865Z,58.34
2018-01-20T00:12:09.189Z,58.08
2018-01-20T00:14:35.584Z,59.44
2018-01-20T00:17:02.944Z,58.49
2018-01-20T00:19:29.329Z,58.01
2018-01-20T00:21:55.756Z,57.77
2018-01-20T00:24:22.262Z,57.90
2018-01-20T00:26:50.573Z,57.75
2018-01-20T00:29:16.956Z,58.00
2018-01-20T00:31:43.406Z,58.35
2018-01-20T00:34:09.814Z,59.63
2018-01-20T00:36:36.173Z,60.31
2018-01-20T00:39:02.716Z,60.52
2018-01-20T00:41:29.110Z,59.61
2018-01-20T00:43:55.512Z,58.72
2018-01-20T00:46:21.981Z,58.54
2018-01-20T00:48:48.414Z,59.77
2018-01-20T00:51:14.802Z,59.72
2018-01-20T00:53:41.241Z,60.26
2018-01-20T00:56:07.665Z,59.07
2018-01-20T00:58:34.036Z,58.07
2018-01-20T01:01:00.435Z,57.95
2018-01-20T01:03:26.788Z,58.63
2018-01-20T01:05:53.173Z,59.32
2018-01-20T01:08:19.632Z,59.39
2018-01-20T01:10:46.041Z,59.25
2018-01-20T01:13:12.465Z,61.18
2018-01-20T01:15:38.925Z,59.42
2018-01-20T01:18:05.373Z,59.11
2018-01-20T01:20:31.849Z,58.65
2018-01-20T01:22:58.354Z,58.95
2018-01-20T01:25:24.708Z,59.09
2018-01-20T01:27:51.101Z,59.20
2018-01-20T01:30:17.549Z,59.89
2018-01-20T01:32:43.961Z,61.93
2018-01-20T01:35:10.362Z,60.15
2018-01-20T01:37:36.753Z,59.89
2018-01-20T01:40:03.189Z,60.00
2018-01-20T01:42:29.649Z,59.80
2018-01-20T01:44:56.021Z,59.72
2018-01-20T01:47:22.449Z,59.89
2018-01-20T01:49:48.893Z,60.46
2018-01-20T01:52:15.325Z,60.74
2018-01-20T01:54:41.782Z,61.04
2018-01-20T01:57:08.209Z,60.85
2018-01-20T01:59:34.632Z,61.20
2018-01-20T02:02:01.057Z,61.71
2018-01-20T02:04:27.477Z,61.76
2018-01-20T02:06:53.888Z,62.13
2018-01-20T02:09:20.300Z,62.34
2018-01-20T02:11:46.741Z,62.29
2018-01-20T02:14:13.168Z,61.18
2018-01-20T02:16:39.534Z,60.62
2018-01-20T02:19:05.914Z,60.06
2018-01-20T02:21:32.329Z,61.44
2018-01-20T02:23:58.770Z,61.94
2018-01-20T02:26:25.596Z,60.76
2018-01-20T02:28:52.025Z,60.46
2018-01-20T02:31:18.431Z,60.49
2018-01-20T02:33:44.841Z,60.74
2018-01-20T02:36:11.333Z,60.32
2018-01-20T02:38:37.730Z,60.26
2018-01-20T02:41:04.117Z,60.52
2018-01-20T02:43:30.528Z,60.48
2018-01-20T02:45:56.904Z,60.03
2018-01-20T02:48:23.320Z,59.74
2018-01-20T02:50:49.802Z,60.45
2018-01-20T02:53:16.205Z,61.66
2018-01-20T02:55:42.657Z,60.69
2018-01-20T02:58:09.105Z,61.79
2018-01-20T03:00:35.538Z,60.98
2018-01-20T03:03:01.941Z,60.16
2018-01-20T03:05:28.380Z,59.96
2018-01-20T03:07:54.849Z,60.20
2018-01-20T03:10:21.229Z,60.18
2018-01-20T03:12:48.368Z,59.64
2018-01-20T03:15:14.812Z,59.89
2018-01-20T03:17:41.208Z,59.72
2018-01-20T03:20:07.637Z,60.85
2018-01-20T03:22:34.049Z,61.58
2018-01-20T03:25:00.433Z,61.12
2018-01-20T03:27:26.848Z,60.92
2018-01-20T03:29:53.235Z,60.81
2018-01-20T03:32:19.609Z,60.78
2018-01-20T03:34:46.057Z,61.14
2018-01-20T03:37:12.473Z,60.71
2018-01-20T03:39:38.889Z,60.53
2018-01-20T03:42:05.281Z,60.05
2018-01-20T03:44:31.789Z,59.81
2018-01-20T03:46:58.224Z,60.13
2018-01-20T03:49:24.692Z,59.59
2018-01-20T03:51:51.046Z,61.09
2018-01-20T03:54:17.437Z,59.88
2018-01-20T03:56:43.864Z,60.19
2018-01-20T03:59:10.273Z,60.45
2018-01-20T04:01:36.688Z,60.44
2018-01-20T04:04:03.125Z,59.88
2018-01-20T04:06:29.598Z,59.84
2018-01-20T04:08:55.976Z,59.63
2018-01-20T04:11:22.376Z,60.29
2018-01-20T04:13:48.773Z,60.08
2018-01-20T04:16:15.164Z,60.65
2018-01-20T04:18:41.576Z,60.84
2018-01-20T04:21:07.953Z,61.29
2018-01-20T04:23:34.313Z,61.32
2018-01-20T04:26:00.793Z,59.99
2018-01-20T04:28:27.231Z,59.75
2018-01-20T04:30:53.621Z,59.75
2018-01-20T04:33:20.071Z,60.33
2018-01-20T04:35:46.453Z,61.35
2018-01-20T04:38:12.898Z,60.56
2018-01-20T04:40:39.333Z,61.43
2018-01-20T04:43:05.773Z,61.55
2018-01-20T04:45:32.203Z,60.96
2018-01-20T04:47:58.573Z,62.13
2018-01-20T04:50:24.949Z,61.01
2018-01-20T04:52:51.317Z,60.71
2018-01-20T04:55:17.833Z,60.74
2018-01-20T04:57:44.197Z,60.35
2018-01-20T05:00:10.582Z,60.25
2018-01-20T05:02:37.053Z,60.36
2018-01-20T05:05:03.509Z,60.96
2018-01-20T05:07:29.857Z,60.62
2018-01-20T05:09:56.240Z,60.66
2018-01-20T05:12:22.637Z,60.40
2018-01-20T05:14:49.080Z,60.83
2018-01-20T05:17:15.482Z,61.21
2018-01-20T05:19:41.915Z,61.12
2018-01-20T05:22:08.316Z,60.61
2018-01-20T05:24:34.719Z,60.43
2018-01-20T05:27:01.397Z,60.26
2018-01-20T05:29:27.862Z,60.19
2018-01-20T05:31:54.240Z,60.03
2018-01-20T05:34:20.617Z,60.11
2018-01-20T05:36:47.091Z,60.35
2018-01-20T05:39:13.484Z,60.54
2018-01-20T05:41:39.889Z,63.12
2018-01-20T05:44:06.299Z,61.37
2018-01-20T05:46:32.837Z,60.96
2018-01-20T05:48:59.249Z,61.29
2018-01-20T05:51:25.631Z,62.31
2018-01-20T05:53:52.011Z,61.19
2018-01-20T05:56:18.416Z,61.24
2018-01-20T05:58:44.818Z,62.14
2018-01-20T06:01:11.261Z,61.40
2018-01-20T06:03:37.701Z,61.36
2018-01-20T06:06:04.102Z,64.92
2018-01-20T06:08:30.518Z,61.01
2018-01-20T06:10:56.944Z,60.13
2018-01-20T06:13:23.441Z,60.68
2018-01-20T06:15:49.790Z,60.53
2018-01-20T06:18:16.198Z,60.63
2018-01-20T06:20:42.609Z,61.16
2018-01-20T06:23:09.012Z,60.97
2018-01-20T06:25:35.449Z,60.29
2018-01-20T06:28:01.854Z,60.48
2018-01-20T06:30:28.353Z,61.36
2018-01-20T06:32:54.702Z,61.55
2018-01-20T06:35:21.121Z,60.76
2018-01-20T06:37:47.577Z,60.17
2018-01-20T06:40:13.967Z,60.24
2018-01-20T06:42:40.373Z,61.02
2018-01-20T06:45:06.856Z,60.47
2018-01-20T06:47:33.241Z,60.84
2018-01-20T06:49:59.709Z,61.45
2018-01-20T06:52:26.105Z,68.27
2018-01-20T06:54:52.480Z,63.05
2018-01-20T06:57:18.868Z,61.69
2018-01-20T06:59:45.311Z,60.41
2018-01-20T07:02:11.702Z,60.96
2018-01-20T07:04:38.073Z,62.15
2018-01-20T07:07:04.501Z,64.27
2018-01-20T07:09:30.917Z,61.39
2018-01-20T07:11:57.297Z,60.48
2018-01-20T07:14:23.653Z,60.28
2018-01-20T07:16:50.136Z,60.34
2018-01-20T07:19:16.553Z,60.18
2018-01-20T07:21:43.006Z,60.52
2018-01-20T07:24:09.376Z,59.87
2018-01-20T07:26:35.753Z,59.89
2018-01-20T07:29:09.264Z,59.99
2018-01-20T07:31:35.816Z,59.97
2018-01-20T07:34:02.242Z,60.22
2018-01-20T07:36:28.665Z,61.05
2018-01-20T07:38:55.150Z,60.47
2018-01-20T07:41:21.542Z,60.39
2018-01-20T07:43:47.905Z,60.23
2018-01-20T07:46:14.318Z,60.16
2018-01-20T07:48:40.729Z,60.35
2018-01-20T07:51:07.205Z,60.52
2018-01-20T07:53:33.686Z,60.42
2018-01-20T07:56:00.046Z,61.00
2018-01-20T07:58:26.457Z,61.01
2018-01-20T08:00:52.898Z,60.61
2018-01-20T08:03:19.248Z,59.80
2018-01-20T08:05:45.669Z,59.37
2018-01-20T08:08:12.093Z,59.38
2018-01-20T08:10:38.624Z,59.41
2018-01-20T08:13:05.089Z,59.11
2018-01-20T08:15:31.721Z,58.86
2018-01-20T08:17:58.097Z,58.97
2018-01-20T08:20:24.449Z,60.83
2018-01-20T08:22:50.860Z,61.12
2018-01-20T08:25:17.221Z,58.79
2018-01-20T08:27:43.869Z,58.43
2018-01-20T08:30:10.258Z,58.38
2018-01-20T08:32:36.613Z,58.47
2018-01-20T08:35:03.069Z,58.94
2018-01-20T08:37:29.460Z,58.73
2018-01-20T08:39:55.869Z,58.31
2018-01-20T08:42:22.230Z,58.30
2018-01-20T08:44:48.612Z,58.50
2018-01-20T08:47:15.095Z,59.32
2018-01-20T08:49:41.481Z,58.36
2018-01-20T08:52:07.913Z,61.20
2018-01-20T08:54:34.297Z,58.18
2018-01-20T08:57:00.657Z,60.05
2018-01-20T08:59:27.105Z,64.24
2018-01-20T09:01:53.461Z,65.53
2018-01-20T09:04:19.856Z,65.88
2018-01-20T09:06:46.333Z,61.54
2018-01-20T09:09:12.679Z,60.69
2018-01-20T09:11:39.093Z,62.15
2018-01-20T09:14:05.593Z,61.66
2018-01-20T09:16:31.968Z,60.74
2018-01-20T09:18:58.337Z,65.03
2018-01-20T09:21:24.770Z,64.94
2018-01-20T09:23:51.125Z,60.05
2018-01-20T09:26:17.545Z,63.72
2018-01-20T09:28:43.980Z,63.97
2018-01-20T09:31:10.393Z,59.84
2018-01-20T09:33:36.755Z,62.48
2018-01-20T09:36:03.196Z,60.04
2018-01-20T09:38:29.605Z,62.28
2018-01-20T09:40:56.010Z,59.95
2018-01-20T09:43:22.377Z,65.06
2018-01-20T09:45:48.725Z,65.71
2018-01-20T09:48:15.157Z,65.65
2018-01-20T09:50:41.552Z,65.84
2018-01-20T09:53:07.969Z,63.29
2018-01-20T09:55:34.377Z,65.35
2018-01-20T09:58:00.760Z,63.27
2018-01-20T10:00:27.102Z,64.36
2018-01-20T10:02:53.504Z,61.57
2018-01-20T10:05:19.889Z,61.23
2018-01-20T10:07:46.281Z,59.34
2018-01-20T10:10:12.666Z,59.03
2018-01-20T10:12:39.065Z,60.57
2018-01-20T10:15:05.413Z,58.17
2018-01-20T10:17:31.765Z,62.92
2018-01-20T10:19:58.185Z,64.01
2018-01-20T10:22:24.541Z,59.03
2018-01-20T10:24:50.940Z,58.76
2018-01-20T10:27:17.325Z,58.14
2018-01-20T10:42:49.333Z,64.17
2018-01-20T10:45:15.721Z,60.04
2018-01-20T10:47:42.120Z,63.94
2018-01-20T10:50:08.534Z,61.61
2018-01-20T10:52:34.953Z,63.55
2018-01-20T10:55:01.435Z,60.67
2018-01-20T10:57:27.970Z,62.77
2018-01-20T10:59:54.349Z,63.50
2018-01-20T11:02:20.809Z,61.26
2018-01-20T11:04:47.205Z,62.80
2018-01-20T11:07:13.676Z,60.29
2018-01-20T11:09:40.137Z,61.95
2018-01-20T11:12:06.517Z,62.91
2018-01-20T11:14:32.900Z,61.74
2018-01-20T11:16:59.276Z,59.48
2018-01-20T11:19:25.733Z,60.73
2018-01-20T11:21:52.112Z,60.36
2018-01-20T11:24:18.617Z,59.54
2018-01-20T11:26:45.045Z,60.28
2018-01-20T11:29:11.417Z,62.58
2018-01-20T11:31:37.826Z,62.55
2018-01-20T11:34:04.244Z,61.22
2018-01-20T11:36:30.661Z,62.22
2018-01-20T11:38:57.304Z,59.95
2018-01-20T11:41:23.757Z,60.07
2018-01-20T11:43:50.331Z,60.19
2018-01-20T11:46:16.737Z,59.06
2018-01-20T11:48:43.244Z,59.40
2018-01-20T11:51:09.641Z,58.64
2018-01-20T11:53:36.021Z,59.32
2018-01-20T11:56:02.471Z,61.09
2018-01-20T11:58:29.016Z,62.91
2018-01-20T12:00:55.545Z,60.43
2018-01-20T12:03:21.981Z,62.94
2018-01-20T12:05:48.365Z,62.00
2018-01-20T12:08:14.743Z,63.25
2018-01-20T12:10:41.257Z,63.02
2018-01-20T12:13:07.636Z,63.36
2018-01-20T12:15:34.038Z,61.98
2018-01-20T12:18:00.409Z,63.72
2018-01-20T12:20:26.883Z,64.04
2018-01-20T12:22:53.266Z,64.37
2018-01-20T12:25:19.891Z,61.66
2018-01-20T12:27:46.326Z,62.36
2018-01-20T12:30:12.915Z,63.50
2018-01-20T12:32:39.302Z,61.66
2018-01-20T12:35:05.955Z,62.54
2018-01-20T12:37:32.359Z,62.17
2018-01-20T12:39:58.718Z,61.58
2018-01-20T12:42:25.186Z,62.52
2018-01-20T12:44:51.647Z,63.77
2018-01-20T12:47:18.018Z,64.36
2018-01-20T12:49:44.514Z,64.49
2018-01-20T12:52:10.934Z,62.46
2018-01-20T12:54:37.294Z,62.85
2018-01-20T12:57:03.679Z,62.53
2018-01-20T12:59:30.075Z,62.86
2018-01-20T13:01:56.454Z,64.05
2018-01-20T13:04:23.023Z,63.72
2018-01-20T13:06:49.390Z,64.45
2018-01-20T13:09:15.750Z,64.14
2018-01-20T13:11:42.208Z,64.03
2018-01-20T13:14:08.598Z,64.39
2018-01-20T13:16:35.004Z,63.96
2018-01-20T13:19:01.380Z,63.88
2018-01-20T13:21:27.766Z,64.33
2018-01-20T13:23:54.091Z,64.19
2018-01-20T13:26:20.450Z,63.46
2018-01-20T13:28:46.807Z,63.37
2018-01-20T13:31:13.191Z,64.30
2018-01-20T13:33:39.571Z,63.93
2018-01-20T13:36:05.967Z,62.52
2018-01-20T13:38:32.359Z,62.37
2018-01-20T13:40:58.723Z,64.02
2018-01-20T13:43:25.086Z,64.37
2018-01-20T13:45:51.558Z,64.87
2018-01-20T13:48:17.906Z,65.00
2018-01-20T13:50:44.268Z,63.74
2018-01-20T13:53:10.660Z,64.23
2018-01-20T13:55:37.000Z,63.54
2018-01-20T13:58:03.335Z,63.26
2018-01-20T14:00:29.776Z,63.74
2018-01-20T14:02:56.154Z,63.75
2018-01-20T14:05:22.523Z,64.12
2018-01-20T14:07:49.230Z,64.29
2018-01-20T14:10:15.607Z,64.10
2018-01-20T14:12:42.574Z,64.42
2018-01-20T14:15:08.935Z,64.48
2018-01-20T14:17:35.299Z,65.25
2018-01-20T14:20:01.643Z,65.20
2018-01-20T14:22:28.043Z,65.21
2018-01-20T14:24:54.392Z,65.97
2018-01-20T14:27:20.991Z,65.87
2018-01-20T14:29:47.490Z,65.76
2018-01-20T14:32:13.859Z,65.99
2018-01-20T14:34:40.195Z,65.84
2018-01-20T14:37:06.678Z,65.78
2018-01-20T14:39:33.116Z,65.92
2018-01-20T14:41:59.451Z,66.33
2018-01-20T14:44:25.831Z,66.44
2018-01-20T14:46:52.191Z,66.36
2018-01-20T14:49:18.633Z,66.52
2018-01-20T14:51:45.009Z,66.70
2018-01-20T14:54:11.462Z,66.88
2018-01-20T14:56:37.831Z,67.03
2018-01-20T14:59:04.231Z,66.91
2018-01-20T15:01:30.684Z,67.02
2018-01-20T15:03:57.116Z,67.02
2018-01-20T15:06:23.504Z,67.00
2018-01-20T15:08:49.878Z,67.13
2018-01-20T15:11:16.363Z,67.43
2018-01-20T15:13:42.745Z,67.24
2018-01-20T15:16:09.104Z,67.01
2018-01-20T15:18:36.583Z,67.26
2018-01-20T15:21:02.953Z,67.49
2018-01-20T15:23:29.375Z,67.44
2018-01-20T15:25:55.703Z,67.08
2018-01-20T15:28:22.044Z,67.35
2018-01-20T15:30:48.467Z,67.22
2018-01-20T15:33:14.843Z,67.56
2018-01-20T15:35:41.247Z,67.64
2018-01-20T15:38:07.589Z,67.62
2018-01-20T15:40:33.939Z,67.69
2018-01-20T15:43:00.292Z,67.84
2018-01-20T15:45:26.661Z,67.78
2018-01-20T15:47:53.078Z,67.78
2018-01-20T15:50:19.443Z,67.64
2018-01-20T15:52:45.791Z,67.58
2018-01-20T15:55:12.213Z,67.48
2018-01-20T15:57:38.645Z,67.13
2018-01-20T16:00:05.169Z,66.88
2018-01-20T16:02:31.518Z,67.09
2018-01-20T16:04:57.859Z,67.23
2018-01-20T16:07:24.255Z,67.41
2018-01-20T16:09:50.680Z,66.86
2018-01-20T16:12:17.057Z,66.75
2018-01-20T16:14:43.399Z,66.95
2018-01-20T16:17:09.739Z,67.21
2018-01-20T16:19:36.148Z,67.08
2018-01-20T16:22:02.495Z,66.77
2018-01-20T16:24:28.975Z,66.31
2018-01-20T16:26:55.347Z,67.58
2018-01-20T16:29:21.692Z,66.87
2018-01-20T16:31:48.064Z,66.81
2018-01-20T16:34:14.428Z,66.87
2018-01-20T16:36:40.835Z,67.35
2018-01-20T16:39:07.294Z,66.67
2018-01-20T16:41:33.625Z,67.08
2018-01-20T16:44:00.001Z,67.40
2018-01-20T16:46:26.424Z,67.34
2018-01-20T16:48:52.771Z,67.51
2018-01-20T16:51:19.211Z,67.12
2018-01-20T16:53:45.627Z,67.86
2018-01-20T16:56:12.035Z,67.86
2018-01-20T16:58:38.392Z,68.13
2018-01-20T17:01:04.760Z,66.98
2018-01-20T17:03:31.132Z,68.04
2018-01-20T17:05:57.549Z,66.79
2018-01-20T17:08:23.959Z,66.86
2018-01-20T17:10:50.417Z,67.06
2018-01-20T17:13:16.784Z,68.12
2018-01-20T17:15:43.188Z,68.81
2018-01-20T17:18:09.519Z,67.80
2018-01-20T17:20:36.047Z,68.18
2018-01-20T17:23:02.384Z,68.09
2018-01-20T17:25:28.748Z,67.27
2018-01-20T17:27:55.186Z,68.30
2018-01-20T17:30:21.524Z,67.03
2018-01-20T17:32:47.887Z,67.86
2018-01-20T17:35:14.303Z,65.99
2018-01-20T17:37:40.656Z,66.48
2018-01-20T17:40:07.036Z,66.83
2018-01-20T17:42:33.432Z,66.12
2018-01-20T17:44:59.836Z,66.15
2018-01-20T17:47:26.171Z,63.60
2018-01-20T17:49:52.560Z,64.34
2018-01-20T17:52:18.956Z,64.97
2018-01-20T17:54:45.390Z,64.21
2018-01-20T17:57:11.748Z,64.01
2018-01-20T17:59:38.120Z,65.12
2018-01-20T18:02:04.558Z,63.99
2018-01-20T18:04:30.955Z,64.51
2018-01-20T18:06:57.353Z,65.20
2018-01-20T18:09:23.715Z,64.21
2018-01-20T18:11:50.176Z,64.80
2018-01-20T18:14:16.701Z,65.04
2018-01-20T18:16:43.138Z,65.15
2018-01-20T18:19:09.603Z,66.03
2018-01-20T18:21:35.987Z,66.67
2018-01-20T18:24:02.411Z,65.65
2018-01-20T18:26:28.821Z,65.52
2018-01-20T18:28:55.332Z,67.90
2018-01-20T18:31:21.688Z,66.41
2018-01-20T18:33:48.087Z,66.35
2018-01-20T18:36:14.480Z,67.17
2018-01-20T18:38:40.862Z,66.88
2018-01-20T18:41:07.239Z,64.76
2018-01-20T18:43:33.595Z,64.48
2018-01-20T18:45:59.988Z,62.69
2018-01-20T18:48:26.343Z,62.35
2018-01-20T18:50:52.692Z,62.33
2018-01-20T18:53:19.091Z,62.99
2018-01-20T18:55:45.510Z,63.29
2018-01-20T18:58:11.891Z,63.64
2018-01-20T19:00:38.298Z,64.49
2018-01-20T19:03:04.643Z,65.77
2018-01-20T19:05:31.012Z,66.75
2018-01-20T19:07:57.407Z,67.67
2018-01-20T19:10:23.793Z,68.53
2018-01-20T19:12:50.184Z,69.42
2018-01-20T19:15:16.545Z,70.35
2018-01-20T19:17:42.931Z,71.20
2018-01-20T19:20:09.329Z,71.94
2018-01-20T19:22:35.684Z,72.95
2018-01-20T19:25:02.096Z,74.51
2018-01-20T19:27:28.432Z,76.10
2018-01-20T19:29:54.771Z,77.05
2018-01-20T19:32:21.140Z,78.38
2018-01-20T19:34:47.495Z,79.21
2018-01-20T19:37:13.855Z,79.81
2018-01-20T19:39:40.283Z,79.69
2018-01-20T19:42:06.712Z,79.51
2018-01-20T19:44:33.072Z,79.60
2018-01-20T19:46:59.439Z,79.58
2018-01-20T19:49:25.797Z,79.80
2018-01-20T19:51:52.328Z,80.33
2018-01-20T19:54:18.754Z,80.42
2018-01-20T19:56:45.079Z,80.52
2018-01-20T19:59:11.545Z,80.83
2018-01-20T20:01:37.919Z,80.99
2018-01-20T20:04:04.283Z,81.23
2018-01-20T20:06:30.703Z,81.35
2018-01-20T20:08:57.072Z,81.55
2018-01-20T20:11:23.407Z,81.83
2018-01-20T20:13:49.769Z,82.11
2018-01-20T20:16:16.270Z,82.25
2018-01-20T20:18:42.651Z,81.87
2018-01-20T20:21:09.084Z,81.91
2018-01-20T20:23:35.579Z,81.99
2018-01-20T20:26:01.980Z,81.84
2018-01-20T20:28:28.348Z,82.01
2018-01-20T20:30:54.734Z,82.08
2018-01-20T20:33:21.235Z,82.24
2018-01-20T20:35:47.712Z,82.19
2018-01-20T20:38:14.103Z,82.42
2018-01-20T20:40:40.475Z,82.07
2018-01-20T20:43:06.874Z,81.70
2018-01-20T20:45:33.343Z,81.13
2018-01-20T20:47:59.818Z,82.30
2018-01-20T20:50:26.181Z,81.79
2018-01-20T20:52:52.615Z,81.40
2018-01-20T20:55:19.022Z,81.06
2018-01-20T20:57:45.405Z,80.99
2018-01-20T21:00:11.765Z,81.14
2018-01-20T21:02:38.132Z,80.56
2018-01-20T21:05:04.685Z,79.70
2018-01-20T21:07:31.095Z,79.93
2018-01-20T21:09:57.514Z,79.78
2018-01-20T21:12:23.883Z,78.69
2018-01-20T21:14:50.235Z,79.01
2018-01-20T21:17:16.619Z,78.59
2018-01-20T21:19:43.126Z,78.80
2018-01-20T21:22:09.513Z,79.06
2018-01-20T21:24:35.943Z,78.83
2018-01-20T21:27:02.332Z,79.13
2018-01-20T21:29:28.683Z,78.92
2018-01-20T21:31:55.104Z,78.96
2018-01-20T21:34:21.489Z,78.89
2018-01-20T21:36:47.916Z,78.78
2018-01-20T21:39:14.334Z,79.14
2018-01-20T21:41:40.736Z,78.81
2018-01-20T21:44:07.122Z,78.84
2018-01-20T21:46:33.535Z,79.13
2018-01-20T21:48:59.990Z,79.49
2018-01-20T21:51:26.363Z,79.71
2018-01-20T21:53:52.807Z,79.08
2018-01-20T21:56:19.316Z,79.43
2018-01-20T21:58:45.750Z,79.06
2018-01-20T22:01:12.271Z,79.17
2018-01-20T22:03:38.680Z,78.66
2018-01-20T22:06:05.152Z,78.58
2018-01-20T22:08:31.571Z,78.37
2018-01-20T22:10:58.019Z,78.00
2018-01-20T22:13:24.472Z,77.21
2018-01-20T22:15:50.841Z,77.36
2018-01-20T22:18:17.422Z,77.48
2018-01-20T22:20:43.930Z,77.65
2018-01-20T22:23:10.286Z,77.72
2018-01-20T22:25:36.729Z,78.22
2018-01-20T22:28:03.187Z,78.58
2018-01-20T22:30:29.689Z,78.73
2018-01-20T22:32:56.328Z,78.76
2018-01-20T22:35:22.735Z,78.71
2018-01-20T22:37:49.099Z,78.47
2018-01-20T22:40:15.730Z,78.79
2018-01-20T22:42:42.147Z,79.07
2018-01-20T22:45:08.775Z,78.95
2018-01-20T22:47:35.439Z,78.83
2018-01-20T22:50:01.860Z,78.29
2018-01-20T22:52:28.202Z,77.49
2018-01-20T22:54:54.563Z,77.29
2018-01-20T22:57:20.983Z,77.54
2018-01-20T22:59:47.511Z,78.53
2018-01-20T23:02:14.071Z,78.73
2018-01-20T23:04:40.524Z,78.78
2018-01-20T23:07:06.956Z,78.90
2018-01-20T23:09:33.439Z,79.49
2018-01-20T23:11:59.815Z,79.09
2018-01-20T23:14:26.232Z,77.94
2018-01-20T23:16:52.611Z,77.69
2018-01-20T23:19:19.023Z,77.50
2018-01-20T23:21:45.459Z,77.75
2018-01-20T23:24:11.835Z,77.70
2018-01-20T23:26:38.285Z,78.03
2018-01-20T23:29:04.687Z,78.09
2018-01-20T23:31:31.084Z,78.21
2018-01-20T23:33:57.434Z,77.47
2018-01-20T23:36:23.873Z,78.07
2018-01-20T23:38:50.234Z,78.34
2018-01-20T23:41:16.766Z,79.03
2018-01-20T23:43:43.304Z,78.91
2018-01-20T23:46:09.660Z,78.69
2018-01-20T23:48:36.019Z,77.96
2018-01-20T23:51:02.436Z,78.09
2018-01-20T23:53:28.935Z,78.79
2018-01-20T23:55:55.314Z,79.22
2018-01-20T23:58:21.735Z,78.76
